Time;durP1;ratioP1;P1;durP2;ratioP2;P2;SDS_P1;SDS_P2;PMS_P1;PMS_P2;Temp;Humidity;BMP_temperature;BMP_pressure;BME280_temperature;BME280_humidity;BME280_pressure;Samples;Min_cycle;Max_cycle;Signal;HPM_P1;HPM_P2
2021/09/09 00:01:43;;;;;;;37.22;25.92;;;;;;;17.01;69.03;100978.91;5086817;28;20031;-70
2021/09/09 00:04:09;;;;;;;36.90;25.40;;;;;;;16.97;69.15;100982.53;5083681;28;20021;-71
2021/09/09 00:06:34;;;;;;;38.83;25.42;;;;;;;16.98;69.06;100978.06;5086049;28;20035;-71
2021/09/09 00:08:59;;;;;;;38.83;26.08;;;;;;;16.91;69.29;100972.00;5084964;28;20066;-69
2021/09/09 00:11:25;;;;;;;39.78;26.73;;;;;;;16.97;69.35;100965.66;5084217;28;20025;-72
2021/09/09 00:13:51;;;;;;;40.35;28.63;;;;;;;17.04;69.59;100964.63;5086444;28;20074;-71
2021/09/09 00:16:16;;;;;;;39.08;27.10;;;;;;;17.06;68.50;100962.78;5083149;28;20020;-72
2021/09/09 00:18:42;;;;;;;39.88;26.45;;;;;;;17.05;68.75;100967.25;5086949;28;20112;-71
2021/09/09 00:21:07;;;;;;;39.45;27.58;;;;;;;16.90;69.52;100956.88;5084146;28;20062;-72
2021/09/09 00:23:32;;;;;;;38.80;26.75;;;;;;;16.78;70.02;100952.63;5085077;28;20037;-71
2021/09/09 00:25:58;;;;;;;40.35;27.50;;;;;;;16.66;70.68;100950.19;5084876;28;20039;-72
2021/09/09 00:28:23;;;;;;;39.72;27.58;;;;;;;16.65;70.60;100946.66;5084131;28;20468;-72
2021/09/09 00:30:51;;;;;;;41.30;28.30;;;;;;;16.70;70.97;100943.88;5086066;28;20034;-72
2021/09/09 00:33:20;;;;;;;40.90;27.92;;;;;;;16.62;71.18;100949.38;5082488;28;20039;-72
2021/09/09 00:35:45;;;;;;;40.95;27.90;;;;;;;16.64;71.17;100950.22;5082925;28;20396;-72
2021/09/09 00:38:10;;;;;;;40.05;28.20;;;;;;;16.57;71.06;100943.22;5086004;28;20016;-73
2021/09/09 00:40:36;;;;;;;38.28;25.98;;;;;;;16.49;70.83;100942.53;5083510;28;20098;-72
2021/09/09 00:43:01;;;;;;;39.70;27.88;;;;;;;16.57;71.34;100932.56;5084795;28;20433;-72
2021/09/09 00:45:27;;;;;;;40.78;28.13;;;;;;;16.53;71.50;100939.75;5084763;28;20035;-72
2021/09/09 00:47:53;;;;;;;39.15;27.48;;;;;;;16.55;71.28;100939.72;5083229;28;20031;-72
2021/09/09 00:50:18;;;;;;;40.78;27.05;;;;;;;16.44;71.18;100939.03;5085724;28;20044;-71
2021/09/09 00:52:46;;;;;;;40.28;28.63;;;;;;;16.41;71.48;100940.00;5082649;28;20108;-72
2021/09/09 00:55:12;;;;;;;39.72;27.35;;;;;;;16.30;71.96;100928.66;5086152;28;20491;-72
2021/09/09 00:57:37;;;;;;;39.65;27.13;;;;;;;16.20;71.92;100927.91;5083238;28;20024;-72
2021/09/09 01:00:05;;;;;;;39.83;27.65;;;;;;;16.14;72.22;100933.38;5084391;28;20021;-71
2021/09/09 01:02:30;;;;;;;39.55;27.30;;;;;;;16.05;72.38;100931.75;5083986;28;20024;-72
2021/09/09 01:04:56;;;;;;;40.92;28.00;;;;;;;16.00;72.52;100929.16;5083864;28;20028;-71
2021/09/09 01:07:21;;;;;;;40.13;27.55;;;;;;;15.95;72.78;100927.47;5085121;28;20098;-70
2021/09/09 01:09:47;;;;;;;41.28;28.73;;;;;;;15.95;73.38;100917.69;5082638;28;20025;-71
2021/09/09 01:12:12;;;;;;;45.45;30.27;;;;;;;15.92;73.86;100925.72;5085670;28;20024;-71
2021/09/09 01:14:38;;;;;;;43.95;30.50;;;;;;;15.88;73.94;100918.69;5082553;28;20107;-71
2021/09/09 01:17:03;;;;;;;44.28;29.60;;;;;;;15.78;73.90;100915.28;5084292;28;20034;-72
2021/09/09 01:19:30;;;;;;;41.92;29.42;;;;;;;15.76;74.14;100917.06;5083685;28;20047;-71
2021/09/09 01:21:55;;;;;;;44.63;30.23;;;;;;;15.78;74.65;100909.03;5082936;28;20467;-71
2021/09/09 01:24:22;;;;;;;42.63;29.90;;;;;;;15.84;74.99;100916.97;5085321;28;20020;-72
2021/09/09 01:26:52;;;;;;;41.58;28.48;;;;;;;15.88;73.90;100901.81;5081875;28;20028;-72
2021/09/09 01:29:20;;;;;;;41.50;29.88;;;;;;;15.77;74.46;100904.59;5081745;28;20028;-71
2021/09/09 01:31:45;;;;;;;41.70;29.13;;;;;;;15.70;74.23;100901.19;5085248;28;20137;-71
2021/09/09 01:34:11;;;;;;;43.00;29.40;;;;;;;15.68;74.97;100894.97;5081730;28;20050;-71
2021/09/09 01:36:37;;;;;;;43.63;28.65;;;;;;;15.69;74.61;100894.09;5084226;28;20028;-69
2021/09/09 01:39:02;;;;;;;42.60;28.75;;;;;;;15.53;75.10;100898.78;5083214;28;20049;-71
2021/09/09 01:41:28;;;;;;;42.10;29.75;;;;;;;15.46;75.67;100897.09;5082937;28;20025;-71
2021/09/09 01:43:53;;;;;;;43.15;29.60;;;;;;;15.51;75.75;100897.94;5083484;28;20039;-71
2021/09/09 01:46:18;;;;;;;40.72;28.02;;;;;;;15.49;75.51;100900.63;5081621;28;20066;-71
2021/09/09 01:48:44;;;;;;;40.55;28.25;;;;;;;15.58;75.88;100898.69;5084840;28;20047;-71
2021/09/09 01:51:09;;;;;;;40.83;28.83;;;;;;;15.49;76.00;100892.63;5063685;28;20040;-70
2021/09/09 01:53:34;;;;;;;44.78;29.20;;;;;;;15.57;75.70;100897.81;5083967;28;20029;-71
2021/09/09 01:56:00;;;;;;;43.33;29.58;;;;;;;15.47;76.24;100896.22;5083334;28;20032;-71
2021/09/09 01:58:25;;;;;;;43.85;29.02;;;;;;;15.41;76.45;100893.63;5082459;28;20025;-71
2021/09/09 02:00:51;;;;;;;40.10;28.45;;;;;;;15.45;76.00;100898.00;5084362;28;20024;-71
2021/09/09 02:03:16;;;;;;;40.50;28.23;;;;;;;15.36;75.76;100901.66;5081111;28;20043;-71
2021/09/09 02:05:41;;;;;;;42.03;28.63;;;;;;;15.38;76.59;100893.66;5066514;28;20479;-65
2021/09/09 02:08:07;;;;;;;41.03;28.30;;;;;;;15.42;76.11;100892.72;5081939;28;20081;-68
2021/09/09 02:10:32;;;;;;;44.25;31.00;;;;;;;15.38;77.08;100891.91;5082854;28;20028;-68
2021/09/09 02:12:58;;;;;;;42.08;29.45;;;;;;;15.29;76.69;100895.56;5083629;28;20072;-67
2021/09/09 02:15:24;;;;;;;42.75;29.50;;;;;;;15.27;76.99;100897.34;5081761;28;20024;-69
2021/09/09 02:17:50;;;;;;;42.00;29.25;;;;;;;15.22;76.89;100906.31;5084545;28;20111;-68
2021/09/09 02:20:15;;;;;;;40.83;28.77;;;;;;;15.19;76.39;100899.28;5081092;28;20409;-67
2021/09/09 02:22:41;;;;;;;42.10;27.67;;;;;;;15.23;76.90;100905.41;5083938;28;20024;-68
2021/09/09 02:25:07;;;;;;;41.15;27.92;;;;;;;15.22;76.44;100900.97;5081733;28;20103;-67
2021/09/09 02:27:32;;;;;;;43.33;28.73;;;;;;;15.19;76.45;100904.59;5083079;28;20024;-67
2021/09/09 02:29:57;;;;;;;41.22;28.33;;;;;;;15.12;76.98;100905.56;5083070;28;20032;-68
2021/09/09 02:32:23;;;;;;;42.67;28.33;;;;;;;15.06;76.83;100908.34;5081802;28;20036;-68
2021/09/09 02:34:48;;;;;;;41.88;28.38;;;;;;;15.05;77.52;100906.56;5084513;28;20020;-68
2021/09/09 02:37:13;;;;;;;39.95;27.60;;;;;;;15.02;77.04;100910.13;5080630;28;20540;-67
2021/09/09 02:39:42;;;;;;;38.78;27.17;;;;;;;15.02;76.74;100906.59;5084027;28;20061;-67
2021/09/09 02:42:08;;;;;;;38.92;27.30;;;;;;;14.91;77.78;100898.75;5063160;28;20036;-68
2021/09/09 02:44:34;;;;;;;40.25;28.52;;;;;;;14.91;78.13;100893.41;5082945;28;20024;-67
2021/09/09 02:46:59;;;;;;;41.78;29.58;;;;;;;14.98;78.67;100895.09;5082794;28;20028;-68
2021/09/09 02:49:24;;;;;;;46.10;30.33;;;;;;;15.07;79.21;100889.69;5081249;28;20094;-68
2021/09/09 02:51:49;;;;;;;42.97;31.15;;;;;;;15.04;78.97;100889.69;5083881;28;20052;-69
2021/09/09 02:54:15;;;;;;;40.42;28.70;;;;;;;15.04;78.49;100880.84;5080837;28;20059;-68
2021/09/09 02:56:40;;;;;;;40.95;29.02;;;;;;;14.96;78.38;100891.59;5085751;28;20024;-68
2021/09/09 02:59:06;;;;;;;39.92;28.92;;;;;;;14.97;78.27;100885.38;5067612;28;20024;-69
2021/09/09 03:01:31;;;;;;;40.30;28.48;;;;;;;14.92;78.04;100888.06;5068655;28;20028;-67
2021/09/09 03:03:56;;;;;;;42.28;29.80;;;;;;;14.87;78.06;100887.28;5086880;28;20517;-68
2021/09/09 03:06:22;;;;;;;42.58;29.90;;;;;;;14.84;77.96;100891.72;5066835;28;20120;-68
2021/09/09 03:08:47;;;;;;;47.90;30.92;;;;;;;14.76;79.40;100876.75;5088077;28;20056;-66
2021/09/09 03:11:12;;;;;;;41.00;29.58;;;;;;;14.80;79.30;100881.13;5084510;28;20036;-68
2021/09/09 03:13:38;;;;;;;42.65;29.88;;;;;;;14.80;79.68;100886.44;5086982;28;20029;-71
2021/09/09 03:16:03;;;;;;;44.60;31.77;;;;;;;14.82;80.05;100884.66;5085733;28;20039;-72
2021/09/09 03:18:29;;;;;;;45.15;32.15;;;;;;;14.88;80.48;100877.50;5067628;28;20021;-71
2021/09/09 03:20:55;;;;;;;43.47;32.22;;;;;;;14.80;80.20;100869.63;5087235;28;20367;-71
2021/09/09 03:23:20;;;;;;;44.95;32.53;;;;;;;14.76;80.81;100874.06;5084061;28;20032;-71
2021/09/09 03:25:46;;;;;;;45.30;33.08;;;;;;;14.73;81.92;100859.94;5087503;28;20020;-71
2021/09/09 03:28:11;;;;;;;45.28;33.22;;;;;;;14.68;82.12;100860.00;5084641;28;20460;-71
2021/09/09 03:30:37;;;;;;;44.10;32.20;;;;;;;14.74;81.97;100864.38;5086562;28;20109;-71
2021/09/09 03:33:02;;;;;;;42.17;31.52;;;;;;;14.77;81.88;100862.53;5085887;28;20059;-71
2021/09/09 03:35:28;;;;;;;44.03;31.75;;;;;;;14.67;82.08;100860.03;5084965;28;20456;-71
2021/09/09 03:37:54;;;;;;;43.80;31.60;;;;;;;14.72;82.36;100864.41;5086552;28;20039;-70
2021/09/09 03:40:19;;;;;;;96.50;35.10;;;;;;;14.73;81.61;100854.63;5083798;28;20036;-71
2021/09/09 03:42:45;;;;;;;41.90;30.33;;;;;;;14.70;80.96;100860.84;5083957;28;20036;-71
2021/09/09 03:45:10;;;;;;;42.65;31.17;;;;;;;14.60;81.26;100868.03;5086644;28;20020;-71
2021/09/09 03:47:36;;;;;;;43.03;31.15;;;;;;;14.57;81.88;100867.19;5085066;28;20043;-71
2021/09/09 03:50:01;;;;;;;40.97;30.17;;;;;;;14.56;81.42;100866.34;5085331;28;20392;-71
2021/09/09 03:52:27;;;;;;;43.05;31.58;;;;;;;14.46;81.87;100870.00;5085931;28;20036;-71
2021/09/09 03:54:52;;;;;;;42.10;30.35;;;;;;;14.50;81.73;100870.81;5084248;28;20032;-71
2021/09/09 03:57:17;;;;;;;41.53;31.23;;;;;;;14.47;81.92;100869.06;5087225;28;20032;-71
2021/09/09 03:59:43;;;;;;;40.65;30.00;;;;;;;14.37;81.42;100878.06;5083712;28;20020;-71
2021/09/09 04:02:08;;;;;;;41.80;31.67;;;;;;;14.34;82.30;100873.66;5086274;28;20024;-67
2021/09/09 04:04:33;;;;;;;43.35;31.67;;;;;;;14.37;82.61;100876.31;5084922;28;20108;-69
2021/09/09 04:06:59;;;;;;;42.90;31.45;;;;;;;14.37;82.94;100875.41;5084084;28;20433;-68
2021/09/09 04:09:24;;;;;;;42.55;30.65;;;;;;;14.37;82.81;100872.75;5086201;28;20053;-67
2021/09/09 04:11:50;;;;;;;45.28;32.28;;;;;;;14.33;83.47;100878.97;5083142;28;20031;-65
2021/09/09 04:14:15;;;;;;;43.30;32.13;;;;;;;14.28;84.09;100879.03;5086736;28;20360;-68
2021/09/09 04:16:40;;;;;;;42.90;30.92;;;;;;;14.32;83.94;100875.44;5083954;28;20024;-68
2021/09/09 04:19:06;;;;;;;42.67;31.38;;;;;;;14.37;83.80;100876.31;5085448;28;20020;-67
2021/09/09 04:21:31;;;;;;;41.85;31.98;;;;;;;14.44;83.91;100877.97;5084934;28;20024;-67
2021/09/09 04:23:57;;;;;;;42.80;31.83;;;;;;;14.38;84.84;100874.50;5084189;28;20464;-68
2021/09/09 04:26:22;;;;;;;43.05;32.22;;;;;;;14.44;84.56;100871.78;5086007;28;20043;-68
2021/09/09 04:28:48;;;;;;;41.75;31.58;;;;;;;14.46;84.88;100864.69;5083065;28;20368;-68
2021/09/09 04:31:13;;;;;;;44.42;33.20;;;;;;;14.40;85.37;100855.00;5086258;28;20028;-67
2021/09/09 04:33:38;;;;;;;43.35;33.35;;;;;;;14.52;85.46;100858.38;5083512;28;20020;-68
2021/09/09 04:36:04;;;;;;;42.33;30.45;;;;;;;14.55;84.55;100856.59;5084992;28;20033;-66
2021/09/09 04:38:29;;;;;;;41.53;30.83;;;;;;;14.52;85.71;100845.97;5085030;28;20099;-68
2021/09/09 04:40:55;;;;;;;47.50;34.65;;;;;;;14.50;86.19;100839.78;5083235;28;20028;-67
2021/09/09 04:43:20;;;;;;;43.78;32.00;;;;;;;14.59;85.36;100842.34;5086614;28;20081;-68
2021/09/09 04:45:46;;;;;;;42.47;31.08;;;;;;;14.47;85.36;100839.81;5082704;28;20439;-67
2021/09/09 04:48:11;;;;;;;41.85;31.55;;;;;;;14.46;85.17;100835.41;5085511;28;20557;-68
2021/09/09 04:50:36;;;;;;;44.50;32.55;;;;;;;14.49;85.51;100838.03;5083746;28;20101;-70
2021/09/09 04:53:02;;;;;;;45.78;33.05;;;;;;;14.38;85.50;100842.59;5083966;28;20033;-71
2021/09/09 04:55:27;;;;;;;44.33;32.33;;;;;;;14.34;85.97;100839.06;5084882;28;20026;-70
2021/09/09 04:57:52;;;;;;;47.78;34.20;;;;;;;14.42;86.68;100845.19;5082816;28;20056;-71
2021/09/09 05:00:18;;;;;;;45.55;32.65;;;;;;;14.43;86.75;100849.63;5085742;28;20028;-71
2021/09/09 05:02:43;;;;;;;48.78;33.42;;;;;;;14.41;86.75;100850.53;5064614;28;20127;-71
2021/09/09 05:05:09;;;;;;;44.58;32.53;;;;;;;14.40;86.15;100846.09;5084756;28;20482;-70
2021/09/09 05:07:34;;;;;;;44.90;32.55;;;;;;;14.42;86.34;100847.00;5083589;28;20023;-69
2021/09/09 05:10:01;;;;;;;46.08;33.45;;;;;;;14.45;86.39;100839.84;5083734;28;20028;-71
2021/09/09 05:12:26;;;;;;;47.95;34.65;;;;;;;14.45;86.88;100834.53;5084388;28;20028;-71
2021/09/09 05:14:52;;;;;;;45.13;34.10;;;;;;;14.37;86.97;100843.47;5082426;28;20138;-71
2021/09/09 05:17:17;;;;;;;54.47;34.90;;;;;;;14.42;87.00;100841.66;5085860;28;20048;-71
2021/09/09 05:19:42;;;;;;;46.83;32.95;;;;;;;14.47;86.99;100842.47;5081326;28;20032;-71
2021/09/09 05:22:07;;;;;;;44.13;33.42;;;;;;;14.50;86.52;100842.44;5084340;28;20020;-71
2021/09/09 05:24:33;;;;;;;44.67;33.10;;;;;;;14.52;85.62;100842.41;5083609;28;20024;-71
2021/09/09 05:26:58;;;;;;;42.00;31.95;;;;;;;14.58;85.31;100837.91;5082849;28;20388;-70
2021/09/09 05:29:23;;;;;;;43.15;32.10;;;;;;;14.61;85.66;100837.00;5087168;28;20043;-71
2021/09/09 05:31:49;;;;;;;48.40;34.35;;;;;;;14.64;86.35;100832.53;5090359;28;20379;-74
2021/09/09 05:34:14;;;;;;;45.28;32.45;;;;;;;14.60;86.78;100820.16;5089309;28;20524;-70
2021/09/09 05:36:40;;;;;;;45.00;33.92;;;;;;;14.67;86.48;100815.66;5085283;28;20018;-69
2021/09/09 05:39:05;;;;;;;48.75;35.67;;;;;;;14.66;87.18;100813.91;5089403;28;20055;-69
2021/09/09 05:41:31;;;;;;;46.75;34.75;;;;;;;14.72;86.93;100818.28;5085550;28;20031;-69
2021/09/09 05:43:56;;;;;;;46.58;32.78;;;;;;;14.87;85.57;100812.75;5087364;28;20024;-70
2021/09/09 05:46:21;;;;;;;47.00;34.67;;;;;;;14.84;86.44;100811.91;5089132;28;20020;-66
2021/09/09 05:48:47;;;;;;;46.42;34.15;;;;;;;14.92;86.73;100810.03;5090214;28;20008;-69
2021/09/09 05:51:12;;;;;;;44.17;33.95;;;;;;;14.92;87.42;100810.88;5088065;28;20051;-67
2021/09/09 05:53:37;;;;;;;47.03;34.80;;;;;;;14.99;87.61;100807.25;5087989;28;20097;-70
2021/09/09 05:56:03;;;;;;;47.03;34.10;;;;;;;15.07;87.76;100808.91;5086502;28;20410;-67
2021/09/09 05:58:28;;;;;;;47.42;34.38;;;;;;;15.07;88.23;100808.91;5087128;28;20025;-65
2021/09/09 06:00:54;;;;;;;49.40;37.47;;;;;;;15.13;88.19;100803.47;5087361;28;20353;-65
2021/09/09 06:03:20;;;;;;;47.75;34.67;;;;;;;15.15;88.53;100807.03;5086435;28;20107;-65
2021/09/09 06:05:45;;;;;;;49.35;34.20;;;;;;;15.21;88.55;100814.03;5086392;28;20024;-64
2021/09/09 06:08:10;;;;;;;46.58;34.67;;;;;;;15.20;89.15;100825.59;5067273;28;20387;-64
2021/09/09 06:10:36;;;;;;;47.30;34.90;;;;;;;15.23;88.54;100841.50;5086357;28;20035;-66
2021/09/09 06:13:01;;;;;;;45.72;34.85;;;;;;;15.32;88.47;100858.25;5086693;28;20085;-64
2021/09/09 06:15:27;;;;;;;46.30;34.63;;;;;;;15.36;89.11;100847.53;5088584;28;20137;-68
2021/09/09 06:17:52;;;;;;;47.28;33.83;;;;;;;15.46;88.33;100828.72;5085151;28;20044;-69
2021/09/09 06:20:17;;;;;;;48.55;35.00;;;;;;;15.59;88.94;100821.41;5084663;28;20024;-67
2021/09/09 06:22:43;;;;;;;45.60;33.40;;;;;;;15.68;88.36;100839.91;5085480;28;20504;-68
2021/09/09 06:25:09;;;;;;;46.22;33.17;;;;;;;15.83;88.12;100838.81;5085548;28;20058;-68
2021/09/09 06:27:35;;;;;;;46.60;34.25;;;;;;;15.94;87.53;100838.59;5082968;28;20024;-69
2021/09/09 06:30:12;;;;;;;44.67;32.50;;;;;;;16.03;87.79;100848.22;5087841;28;20055;-64
2021/09/09 06:32:44;;;;;;;49.90;31.60;;;;;;;16.22;85.65;100840.75;5074562;28;20036;-66
2021/09/09 06:35:09;;;;;;;46.50;33.08;;;;;;;16.27;86.92;100838.88;5065187;28;20043;-64
2021/09/09 06:37:35;;;;;;;44.67;32.10;;;;;;;16.42;86.22;100848.38;5085056;28;20024;-62
2021/09/09 06:40:00;;;;;;;44.22;33.05;;;;;;;16.49;83.72;100838.47;5091987;28;20035;-69
2021/09/09 06:42:26;;;;;;;43.38;32.00;;;;;;;16.65;83.14;100849.72;5089141;28;20012;-66
2021/09/09 06:44:52;;;;;;;43.78;32.25;;;;;;;16.70;84.57;100843.38;5090016;28;20019;-65
2021/09/09 06:47:17;;;;;;;42.00;31.38;;;;;;;16.77;84.02;100851.22;5087360;28;20032;-69
2021/09/09 06:49:42;;;;;;;44.08;30.98;;;;;;;16.88;82.88;100852.78;5085593;28;20048;-67
2021/09/09 06:52:08;;;;;;;42.67;30.30;;;;;;;16.94;81.88;100849.13;5086128;28;20480;-66
2021/09/09 06:54:33;;;;;;;40.80;29.48;;;;;;;17.08;81.40;100849.69;5089059;28;20031;-66
2021/09/09 06:56:58;;;;;;;41.67;28.40;;;;;;;17.19;77.58;100856.56;5085256;28;20016;-65
2021/09/09 06:59:24;;;;;;;40.42;28.80;;;;;;;17.27;78.45;100851.94;5088102;28;20508;-67
2021/09/09 07:01:49;;;;;;;37.75;25.83;;;;;;;17.38;76.75;100847.19;5089314;28;20031;-66
2021/09/09 07:04:14;;;;;;;38.35;26.02;;;;;;;17.49;75.47;100849.63;5088275;28;20062;-69
2021/09/09 07:06:39;;;;;;;37.17;24.38;;;;;;;17.58;75.94;100837.84;5089952;28;20063;-70
2021/09/09 07:09:05;;;;;;;37.78;23.55;;;;;;;17.69;74.55;100841.13;5092347;28;20043;-64
2021/09/09 07:11:31;;;;;;;35.78;23.52;;;;;;;17.76;75.52;100848.03;5083869;28;20020;-61
2021/09/09 07:13:56;;;;;;;36.05;23.38;;;;;;;17.88;72.62;100843.31;5086635;28;20494;-63
2021/09/09 07:16:22;;;;;;;36.75;23.33;;;;;;;17.97;73.13;100835.09;5068072;28;20055;-62
2021/09/09 07:18:47;;;;;;;34.33;23.60;;;;;;;18.03;73.49;100834.94;5088309;28;20046;-66
2021/09/09 07:21:13;;;;;;;37.10;23.08;;;;;;;18.12;72.39;100840.03;5084326;28;20424;-62
2021/09/09 07:23:38;;;;;;;35.28;22.90;;;;;;;18.20;72.83;100841.59;5081183;28;20459;-61
2021/09/09 07:26:04;;;;;;;34.88;23.33;;;;;;;18.32;72.41;100835.03;5086837;28;20402;-69
2021/09/09 07:28:29;;;;;;;35.65;22.83;;;;;;;18.40;71.15;100843.72;5085884;28;20020;-65
2021/09/09 07:30:54;;;;;;;37.45;23.40;;;;;;;18.46;73.20;100838.19;5085280;28;20111;-71
2021/09/09 07:33:19;;;;;;;35.05;23.58;;;;;;;18.57;71.72;100840.59;5086599;28;20040;-67
2021/09/09 07:35:45;;;;;;;34.15;22.00;;;;;;;18.66;71.64;100844.81;5083967;28;20043;-66
2021/09/09 07:38:11;;;;;;;33.72;22.23;;;;;;;18.75;72.83;100841.84;5085081;28;20035;-65
2021/09/09 07:40:36;;;;;;;34.00;21.15;;;;;;;18.84;71.66;100841.56;5083371;28;20111;-67
2021/09/09 07:43:01;;;;;;;34.17;21.02;;;;;;;18.95;71.49;100833.25;5083273;28;20063;-66
2021/09/09 07:45:28;;;;;;;32.40;21.17;;;;;;;19.09;71.62;100835.47;5085378;28;20074;-66
2021/09/09 07:47:53;;;;;;;35.63;21.30;;;;;;;19.29;72.03;100840.22;5085168;28;20032;-66
2021/09/09 07:50:19;;;;;;;34.28;21.02;;;;;;;19.42;70.78;100844.25;5084219;28;20122;-66
2021/09/09 07:52:44;;;;;;;32.53;20.48;;;;;;;19.60;69.65;100840.09;5086479;28;20112;-66
2021/09/09 07:55:11;;;;;;;33.72;20.65;;;;;;;19.84;70.01;100843.78;5083190;28;20025;-66
2021/09/09 07:57:37;;;;;;;33.15;20.67;;;;;;;19.99;69.40;100844.19;5087349;28;20035;-65
2021/09/09 08:00:04;;;;;;;34.35;21.33;;;;;;;20.07;69.41;100844.78;5084309;28;20074;-66
2021/09/09 08:02:29;;;;;;;33.80;21.08;;;;;;;20.22;69.38;100847.88;5085605;28;20025;-66
2021/09/09 08:04:55;;;;;;;33.30;20.80;;;;;;;20.36;68.82;100856.31;5085378;28;20020;-63
2021/09/09 08:07:20;;;;;;;34.55;20.33;;;;;;;20.40;67.97;100857.91;5084322;28;20464;-64
2021/09/09 08:09:45;;;;;;;32.03;19.85;;;;;;;20.53;68.16;100861.94;5086514;28;20439;-64
2021/09/09 08:12:11;;;;;;;35.75;21.13;;;;;;;20.63;67.28;100864.25;5083734;28;20379;-64
2021/09/09 08:14:36;;;;;;;32.53;20.42;;;;;;;20.80;67.28;100861.84;5086386;28;20371;-64
2021/09/09 08:17:02;;;;;;;34.42;20.75;;;;;;;20.88;66.70;100865.13;5084332;28;20065;-64
2021/09/09 08:19:27;;;;;;;32.42;20.50;;;;;;;20.94;66.82;100868.50;5084983;28;20065;-64
2021/09/09 08:21:52;;;;;;;34.08;21.27;;;;;;;20.80;66.76;100875.28;5085437;28;20068;-62
2021/09/09 08:24:18;;;;;;;33.72;20.73;;;;;;;20.80;67.39;100877.97;5084109;28;20017;-62
2021/09/09 08:26:43;;;;;;;34.40;21.52;;;;;;;20.85;66.56;100873.31;5086600;28;20032;-63
2021/09/09 08:29:08;;;;;;;34.85;22.30;;;;;;;21.02;64.87;100869.94;5082901;28;20163;-63
2021/09/09 08:31:34;;;;;;;33.88;21.55;;;;;;;21.27;65.58;100866.31;5085944;28;20421;-64
2021/09/09 08:33:59;;;;;;;33.83;21.10;;;;;;;21.41;64.06;100872.00;5083976;28;20056;-65
2021/09/09 08:36:25;;;;;;;34.97;20.80;;;;;;;21.67;64.59;100872.78;5065910;28;20086;-65
2021/09/09 08:38:52;;;;;;;32.60;21.25;;;;;;;21.96;63.85;100865.31;5085567;28;20032;-65
2021/09/09 08:41:17;;;;;;;32.17;20.73;;;;;;;22.48;62.92;100854.06;5083263;28;20025;-65
2021/09/09 08:43:43;;;;;;;35.08;21.42;;;;;;;22.65;60.95;100865.91;5086251;28;20123;-65
2021/09/09 08:46:11;;;;;;;34.58;21.30;;;;;;;23.00;59.88;100860.69;5082738;28;20479;-65
2021/09/09 08:48:39;;;;;;;33.88;20.40;;;;;;;23.66;58.84;100861.09;5085791;28;20360;-65
2021/09/09 08:51:05;;;;;;;35.10;21.50;;;;;;;24.13;58.24;100862.31;5082635;28;20083;-65
2021/09/09 08:53:32;;;;;;;34.50;21.15;;;;;;;24.33;57.07;100863.09;5084980;28;20133;-65
2021/09/09 08:55:57;;;;;;;33.25;20.20;;;;;;;24.37;55.23;100870.94;5084019;28;20020;-65
2021/09/09 08:58:22;;;;;;;34.67;20.70;;;;;;;24.53;55.66;100867.44;5083587;28;20031;-65
2021/09/09 09:01:03;;;;;;;32.55;20.45;;;;;;;24.80;56.06;100885.84;5085343;28;20020;-65
2021/09/09 09:03:49;;;;;;;32.40;19.83;;;;;;;24.76;56.76;100874.34;5084520;28;20375;-65
2021/09/09 09:06:24;;;;;;;35.00;22.02;;;;;;;24.80;56.52;100873.22;5082571;28;20039;-65
2021/09/09 09:08:56;;;;;;;33.25;20.65;;;;;;;25.27;54.54;100879.63;5080398;28;20105;-65
2021/09/09 09:11:22;;;;;;;34.97;21.00;;;;;;;25.34;53.22;100875.63;5084655;28;20016;-65
2021/09/09 09:13:48;;;;;;;33.42;20.85;;;;;;;25.06;53.46;100869.06;5082458;28;20032;-66
2021/09/09 09:16:14;;;;;;;36.22;21.10;;;;;;;24.85;53.84;100879.22;5085227;28;20020;-66
2021/09/09 09:18:43;;;;;;;34.95;21.50;;;;;;;24.60;54.70;100871.59;5081497;28;20081;-66
2021/09/09 09:21:09;;;;;;;32.17;20.80;;;;;;;24.64;55.34;100864.19;5082104;28;20459;-65
2021/09/09 09:23:35;;;;;;;35.90;21.50;;;;;;;24.59;55.86;100872.53;5084694;28;20090;-65
2021/09/09 09:26:03;;;;;;;41.90;22.75;;;;;;;24.95;54.47;100876.03;5082922;28;20103;-65
2021/09/09 09:28:51;;;;;;;35.83;22.13;;;;;;;25.69;54.10;100882.69;5083941;28;20036;-65
2021/09/09 09:31:36;;;;;;;36.08;22.00;;;;;;;25.68;53.13;100876.38;5082445;28;20111;-65
2021/09/09 09:34:02;;;;;;;34.10;21.65;;;;;;;25.73;54.32;100887.81;5083061;28;20032;-65
2021/09/09 09:36:33;;;;;;;35.88;22.08;;;;;;;25.89;52.48;100892.31;5083628;28;20076;-65
2021/09/09 09:39:13;;;;;;;37.05;22.13;;;;;;;25.50;54.53;100893.69;5083024;28;20039;-65
2021/09/09 09:41:42;;;;;;;37.35;22.67;;;;;;;25.23;55.05;100891.56;5084910;28;20042;-64
2021/09/09 09:44:09;;;;;;;38.20;24.02;;;;;;;25.10;55.78;100899.50;5082210;28;20027;-66
2021/09/09 09:46:41;;;;;;;39.92;24.95;;;;;;;25.32;55.86;100884.78;5084513;28;20494;-65
2021/09/09 09:49:17;;;;;;;39.03;24.52;;;;;;;26.00;54.60;100889.88;5081708;28;20021;-65
2021/09/09 09:51:45;;;;;;;38.85;25.70;;;;;;;26.62;51.74;100889.72;5081694;28;20040;-65
2021/09/09 09:54:12;;;;;;;38.67;25.42;;;;;;;27.09;50.75;100890.41;5081404;28;20464;-65
2021/09/09 09:56:39;;;;;;;37.15;24.55;;;;;;;27.58;48.44;100890.91;5085934;28;20116;-65
2021/09/09 09:59:05;;;;;;;37.00;24.80;;;;;;;27.45;48.04;100883.59;5087034;28;20036;-65
2021/09/09 10:01:31;;;;;;;36.92;24.30;;;;;;;27.48;47.70;100887.94;5088100;28;20420;-65
2021/09/09 10:04:00;;;;;;;39.22;25.98;;;;;;;28.13;47.83;100887.19;5087814;28;20028;-64
2021/09/09 10:06:27;;;;;;;40.47;26.02;;;;;;;28.15;47.06;100897.97;5081198;28;20024;-64
2021/09/09 10:08:53;;;;;;;37.55;24.48;;;;;;;27.64;48.20;100894.09;5088068;28;20027;-62
2021/09/09 10:11:18;;;;;;;39.22;25.38;;;;;;;27.64;47.46;100887.78;5086542;28;20486;-63
2021/09/09 10:13:44;;;;;;;39.75;24.52;;;;;;;27.47;48.31;100892.47;5089381;28;20031;-62
2021/09/09 10:16:11;;;;;;;38.38;24.60;;;;;;;27.34;49.18;100896.97;5085066;28;20064;-65
2021/09/09 10:18:37;;;;;;;38.08;24.38;;;;;;;27.73;48.70;100892.59;5084433;28;20024;-65
2021/09/09 10:21:03;;;;;;;37.40;23.02;;;;;;;27.96;48.07;100892.88;5088199;28;20367;-65
2021/09/09 10:23:28;;;;;;;38.38;23.48;;;;;;;28.17;46.07;100893.28;5086834;28;20479;-66
2021/09/09 10:25:58;;;;;;;37.97;23.08;;;;;;;28.01;46.48;100893.47;5071633;28;20036;-65
2021/09/09 10:31:07;;;;;;;37.92;25.45;;;;;;;27.21;48.34;100891.44;5082196;28;20556;-65
2021/09/09 10:33:33;;;;;;;38.80;26.30;;;;;;;27.32;48.53;100896.19;5082686;28;20122;-66
2021/09/09 10:35:59;;;;;;;39.53;25.75;;;;;;;27.57;47.71;100889.19;5082020;28;20467;-65
2021/09/09 10:38:33;;;;;;;38.08;24.27;;;;;;;27.57;49.17;100891.91;5081832;28;20078;-64
2021/09/09 10:41:01;;;;;;;39.50;26.08;;;;;;;26.98;49.85;100892.94;5082797;28;20024;-65
2021/09/09 10:43:26;;;;;;;37.65;23.95;;;;;;;26.49;51.64;100887.84;5082168;28;20025;-65
2021/09/09 10:46:08;;;;;;;35.77;23.60;;;;;;;27.07;51.01;100888.75;5083500;28;20413;-65
2021/09/09 10:48:33;;;;;;;;;;;;;;;28.08;48.45;100897.50;5083245;28;20278;-65
2021/09/09 10:50:59;;;;;;;40.03;26.55;;;;;;;27.43;47.74;100900.94;5082554;28;19916;-65
2021/09/09 10:53:42;;;;;;;37.30;24.02;;;;;;;26.93;50.90;100909.50;5081911;28;20084;-65
2021/09/09 10:56:10;;;;;;;34.88;22.42;;;;;;;27.13;51.41;100905.50;5081475;28;20032;-65
2021/09/09 10:58:39;;;;;;;37.13;24.52;;;;;;;27.11;50.24;100906.56;5084047;28;20031;-65
2021/09/09 11:01:08;;;;;;;39.72;24.13;;;;;;;27.13;50.96;100905.50;5086422;28;20433;-65
2021/09/09 11:03:39;;;;;;;39.05;23.95;;;;;;;28.40;48.62;100890.78;5095847;28;20490;-66
2021/09/09 11:06:08;;;;;;;39.10;24.35;;;;;;;28.62;47.05;100901.94;5094226;28;20459;-66
2021/09/09 11:08:34;;;;;;;38.67;24.95;;;;;;;28.52;47.47;100903.53;5098321;28;20474;-65